Time;durP1;ratioP1;P1;durP2;ratioP2;P2;SDS_P1;SDS_P2;PMS_P1;PMS_P2;Temp;Humidity;BMP_temperature;BMP_pressure;BME280_temperature;BME280_humidity;BME280_pressure;Samples;Min_cycle;Max_cycle;Signal;HPM_P1;HPM_P2
2021/03/15 00:00:44;;;;;;;;;;;;;;;12.01;47.56;99839.44;4840765;29;19933;-76
2021/03/15 00:03:11;;;;;;;;;;;;;;;11.94;47.59;99838.84;4826856;29;20010;-76
2021/03/15 00:05:54;;;;;;;;;;;;;;;11.91;47.67;99833.69;4823595;29;19939;-77
2021/03/15 00:08:21;;;;;;;;;;;;;;;11.90;47.65;99831.13;4823926;29;20147;-76
2021/03/15 00:10:49;;;;;;;;;;;;;;;11.90;47.59;99825.81;4840305;29;19962;-77
2021/03/15 00:13:16;;;;;;;;;;;;;;;11.89;47.50;99830.25;4844335;29;19938;-77
2021/03/15 00:15:43;;;;;;;;;;;;;;;11.84;47.71;99832.25;4833256;29;20137;-76
2021/03/15 00:18:12;;;;;;;;;;;;;;;11.82;47.66;99818.22;4842421;29;19933;-76
2021/03/15 00:20:39;;;;;;;;;;;;;;;11.83;47.63;99821.72;4838447;29;19939;-76
2021/03/15 00:23:06;;;;;;;;;;;;;;;11.79;47.75;99824.53;4826273;29;19928;-76
2021/03/15 00:25:33;;;;;;;;;;;;;;;11.77;47.71;99817.59;4843849;29;19941;-77
2021/03/15 00:28:00;;;;;;;;;;;;;;;11.75;47.73;99816.78;4842289;29;19929;-76
2021/03/15 00:30:27;;;;;;;;;;;;;;;11.75;47.57;99820.31;4828787;29;19936;-76
2021/03/15 00:32:55;;;;;;;;;;;;;;;11.74;47.58;99818.59;4844839;29;19959;-76
2021/03/15 00:35:23;;;;;;;;;;;;;;;11.75;47.71;99811.50;4825808;29;20487;-76
2021/03/15 00:37:52;;;;;;;;;;;;;;;11.72;47.68;99815.13;4840638;29;19954;-76
2021/03/15 00:40:20;;;;;;;;;;;;;;;11.69;47.73;99809.13;4841107;29;20503;-76
2021/03/15 00:42:52;;;;;;;;;;;;;;;11.81;47.32;99811.22;4843794;29;19957;-76
2021/03/15 00:45:20;;;;;;;;;;;;;;;11.93;45.68;99810.59;4829685;29;19928;-76
2021/03/15 00:47:48;;;;;;;;;;;;;;;12.00;44.49;99813.00;4840522;29;20070;-76
2021/03/15 00:50:19;;;;;;;;;;;;;;;12.05;43.73;99816.28;4838430;29;19928;-75
2021/03/15 00:52:48;;;;;;;;;;;;;;;12.11;42.79;99813.34;4843839;29;20405;-76
2021/03/15 00:55:15;;;;;;;;;;;;;;;12.16;42.06;99815.78;4843931;29;20266;-76
2021/03/15 00:57:44;;;;;;;;;;;;;;;12.18;41.43;99803.31;4831399;29;19936;-76
2021/03/15 01:00:13;;;;;;;;;;;;;;;12.19;40.89;99799.72;4827741;29;20023;-76
2021/03/15 01:03:08;;;;;;;;;;;;;;;12.24;40.23;99811.81;4826209;29;19933;-76
2021/03/15 01:05:40;;;;;;;;;;;;;;;12.23;40.47;99801.28;4823659;29;20004;-76
2021/03/15 01:08:17;;;;;;;;;;;;;;;12.06;40.38;99805.63;4827409;29;19937;-76
2021/03/15 01:10:46;;;;;;;;;;;;;;;11.93;41.01;99809.75;4842773;29;19933;-77
2021/03/15 01:13:16;;;;;;;;;;;;;;;11.85;41.54;99809.28;4839854;29;19929;-76
2021/03/15 01:15:44;;;;;;;;;;;;;;;11.76;42.13;99803.47;4827070;29;20978;-76
2021/03/15 01:18:12;;;;;;;;;;;;;;;11.70;42.52;99802.91;4840318;29;19988;-77
2021/03/15 01:20:40;;;;;;;;;;;;;;;11.63;42.99;99795.25;4830595;29;20139;-76
2021/03/15 01:23:07;;;;;;;;;;;;;;;11.59;43.36;99796.31;4845722;29;19933;-75
2021/03/15 01:25:35;;;;;;;;;;;;;;;11.55;43.89;99794.75;4826823;29;19939;-76
2021/03/15 01:28:04;;;;;;;;;;;;;;;11.54;43.82;99794.81;4828220;29;19929;-76
2021/03/15 01:30:33;;;;;;;;;;;;;;;11.49;43.98;99795.03;4843442;29;20004;-77
2021/03/15 01:33:00;;;;;;;;;;;;;;;11.48;44.50;99788.03;4841018;29;19940;-76
2021/03/15 01:35:28;;;;;;;;;;;;;;;11.45;44.52;99786.38;4832178;29;19936;-76
2021/03/15 01:37:56;;;;;;;;;;;;;;;11.42;44.74;99783.00;4831425;29;19952;-76
2021/03/15 01:40:23;;;;;;;;;;;;;;;11.40;44.90;99776.91;4832841;29;19979;-76
2021/03/15 01:42:50;;;;;;;;;;;;;;;11.40;45.06;99776.91;4831056;29;19929;-76
2021/03/15 01:45:17;;;;;;;;;;;;;;;11.37;45.42;99774.41;4829215;29;19939;-77
2021/03/15 01:47:44;;;;;;;;;;;;;;;11.34;45.31;99778.06;4842537;29;19943;-76
2021/03/15 01:50:12;;;;;;;;;;;;;;;11.32;45.42;99771.09;4843452;29;19993;-77
2021/03/15 01:52:40;;;;;;;;;;;;;;;11.28;45.60;99776.56;4833765;29;19933;-75
2021/03/15 01:55:09;;;;;;;;;;;;;;;11.25;45.84;99771.38;4843605;29;19940;-76
2021/03/15 01:57:36;;;;;;;;;;;;;;;11.24;45.93;99764.41;4833217;29;20377;-78
2021/03/15 02:00:05;;;;;;;;;;;;;;;11.22;46.21;99773.34;4839378;29;20334;-76
2021/03/15 02:02:39;;;;;;;;;;;;;;;11.19;45.97;99768.16;4843621;29;19960;-76
2021/03/15 02:05:07;;;;;;;;;;;;;;;11.15;46.15;99766.59;4845693;29;20039;-76
2021/03/15 02:07:35;;;;;;;;;;;;;;;11.12;46.57;99759.63;4829911;29;19967;-76
2021/03/15 02:10:06;;;;;;;;;;;;;;;11.08;46.71;99763.34;4842650;29;19941;-76
2021/03/15 02:12:43;;;;;;;;;;;;;;;11.05;46.57;99761.72;4839948;29;19937;-76
2021/03/15 02:15:13;;;;;;;;;;;;;;;10.99;46.74;99756.69;4816106;29;19961;-76
2021/03/15 02:17:43;;;;;;;;;;;;;;;10.96;46.68;99757.72;4838146;29;19936;-76
2021/03/15 02:20:17;;;;;;;;;;;;;;;10.92;47.22;99755.25;4827744;29;20022;-76
2021/03/15 02:22:50;;;;;;;;;;;;;;;10.90;46.96;99749.16;4825053;29;19960;-76
2021/03/15 02:25:38;;;;;;;;;;;;;;;10.89;47.04;99747.47;4835677;29;19940;-76
2021/03/15 02:28:16;;;;;;;;;;;;;;;10.86;47.58;99750.22;4831684;29;20016;-74
2021/03/15 02:31:04;;;;;;;;;;;;;;;10.85;47.37;99740.56;4832338;29;19944;-76
2021/03/15 02:33:42;;;;;;;;;;;;;;;10.83;47.28;99745.94;4844181;29;19936;-75
2021/03/15 02:36:12;;;;;;;;;;;;;;;10.82;47.32;99738.94;4841317;29;19978;-76
2021/03/15 02:38:39;;;;;;;;;;;;;;;10.82;47.26;99730.13;4841486;29;19937;-75
2021/03/15 02:41:08;;;;;;;;;;;;;;;10.78;47.25;99732.94;4828949;29;19961;-75
2021/03/15 02:43:38;;;;;;;;;;;;;;;10.76;47.87;99728.63;4841553;29;19929;-75
2021/03/15 02:46:07;;;;;;;;;;;;;;;10.75;47.30;99727.75;4846561;29;19929;-76
2021/03/15 02:48:35;;;;;;;;;;;;;;;10.76;47.75;99725.97;4828556;29;19928;-76
2021/03/15 02:51:04;;;;;;;;;;;;;;;10.75;48.00;99726.91;4845647;29;19957;-76
2021/03/15 02:53:33;;;;;;;;;;;;;;;10.71;47.95;99727.97;4845975;29;19953;-75
2021/03/15 02:56:02;;;;;;;;;;;;;;;10.69;47.79;99717.47;4842914;29;20430;-76
2021/03/15 02:58:29;;;;;;;;;;;;;;;10.70;48.00;99724.44;4838499;29;20085;-76
2021/03/15 03:00:57;;;;;;;;;;;;;;;10.67;48.11;99719.31;4844572;29;19964;-75
2021/03/15 03:03:24;;;;;;;;;;;;;;;10.66;47.92;99717.56;4824791;29;19936;-75
2021/03/15 03:05:52;;;;;;;;;;;;;;;10.65;48.07;99715.00;4822855;29;19989;-76
2021/03/15 03:08:19;;;;;;;;;;;;;;;10.60;47.85;99715.22;4821901;29;19968;-76
2021/03/15 03:10:48;;;;;;;;;;;;;;;10.61;47.98;99714.28;4821656;29;20005;-76
2021/03/15 03:13:18;;;;;;;;;;;;;;;10.61;48.06;99711.63;4826215;29;19936;-76
2021/03/15 03:15:45;;;;;;;;;;;;;;;10.57;48.15;99713.56;4809773;29;19935;-76
2021/03/15 03:18:13;;;;;;;;;;;;;;;10.57;48.13;99718.88;4813961;29;19932;-76
2021/03/15 03:20:42;;;;;;;;;;;;;;;10.52;48.13;99717.31;4825004;29;20409;-76
2021/03/15 03:23:09;;;;;;;;;;;;;;;10.50;48.15;99721.84;4822131;29;19933;-76
2021/03/15 03:25:37;;;;;;;;;;;;;;;10.48;48.74;99715.75;4823715;29;19950;-76
2021/03/15 03:28:05;;;;;;;;;;;;;;;10.48;48.60;99715.75;4826577;29;19937;-76
2021/03/15 03:30:33;;;;;;;;;;;;;;;10.43;48.52;99719.44;4810600;29;19960;-76
2021/03/15 03:33:03;;;;;;;;;;;;;;;10.41;48.98;99712.50;4825078;29;19936;-75
2021/03/15 03:35:30;;;;;;;;;;;;;;;10.37;49.09;99717.06;4823978;29;19952;-76
2021/03/15 03:37:57;;;;;;;;;;;;;;;10.37;48.57;99721.50;4822959;29;19932;-76
2021/03/15 03:40:24;;;;;;;;;;;;;;;10.29;49.28;99714.72;4820012;29;19933;-76
2021/03/15 03:42:51;;;;;;;;;;;;;;;10.28;48.98;99720.94;4823513;29;19940;-76
2021/03/15 03:45:19;;;;;;;;;;;;;;;10.27;49.00;99715.72;4825050;29;19936;-76
2021/03/15 03:47:46;;;;;;;;;;;;;;;10.24;49.10;99715.84;4827835;29;19937;-76
2021/03/15 03:50:15;;;;;;;;;;;;;;;10.19;49.15;99716.06;4826879;29;19929;-76
2021/03/15 03:52:45;;;;;;;;;;;;;;;10.22;49.24;99712.41;4822531;29;20081;-76
2021/03/15 03:55:15;;;;;;;;;;;;;;;10.38;47.48;99708.22;4825565;29;20574;-76
2021/03/15 03:57:44;;;;;;;;;;;;;;;10.46;46.53;99711.38;4825451;29;19937;-76
2021/03/15 04:00:12;;;;;;;;;;;;;;;10.52;45.11;99710.28;4824283;29;19937;-77
2021/03/15 04:02:44;;;;;;;;;;;;;;;10.48;45.64;99708.69;4837036;29;19936;-77
2021/03/15 04:05:19;;;;;;;;;;;;;;;10.44;46.12;99704.44;4837136;29;20647;-76
2021/03/15 04:07:49;;;;;;;;;;;;;;;10.48;46.52;99703.41;4837631;29;19932;-76
2021/03/15 04:10:19;;;;;;;;;;;;;;;10.50;45.84;99700.69;4839762;29;20008;-76
2021/03/15 04:12:49;;;;;;;;;;;;;;;10.53;45.18;99700.53;4843123;29;19929;-76
2021/03/15 04:15:17;;;;;;;;;;;;;;;10.57;44.29;99695.06;4846129;29;19971;-76
2021/03/15 04:17:46;;;;;;;;;;;;;;;10.63;43.31;99693.91;4839970;29;19949;-76
2021/03/15 04:20:16;;;;;;;;;;;;;;;10.68;43.18;99697.22;4827298;29;19936;-76
2021/03/15 04:22:46;;;;;;;;;;;;;;;10.69;42.40;99695.41;4836385;29;19929;-76
2021/03/15 04:25:17;;;;;;;;;;;;;;;10.75;41.86;99703.94;4832055;29;19935;-77
2021/03/15 04:27:46;;;;;;;;;;;;;;;10.80;40.96;99691.38;4845083;29;19935;-77
2021/03/15 04:30:13;;;;;;;;;;;;;;;10.84;40.73;99704.47;4846116;29;20448;-76
2021/03/15 04:32:40;;;;;;;;;;;;;;;10.87;40.84;99691.94;4840904;29;19928;-77
2021/03/15 04:35:10;;;;;;;;;;;;;;;10.69;40.49;99696.31;4823674;29;19938;-76
2021/03/15 04:37:38;;;;;;;;;;;;;;;10.54;41.84;99691.69;4828529;29;19939;-76
2021/03/15 04:40:05;;;;;;;;;;;;;;;10.44;42.38;99694.72;4836834;29;19939;-76
2021/03/15 04:42:33;;;;;;;;;;;;;;;10.36;43.21;99685.41;4841852;29;19944;-77
2021/03/15 04:45:01;;;;;;;;;;;;;;;10.31;43.05;99688.22;4834170;29;19932;-76
2021/03/15 04:47:28;;;;;;;;;;;;;;;10.28;43.50;99694.50;4840870;29;19936;-76
2021/03/15 04:49:56;;;;;;;;;;;;;;;10.22;43.88;99686.84;4841567;29;19932;-77
2021/03/15 04:52:26;;;;;;;;;;;;;;;10.20;44.56;99680.75;4843159;29;20063;-77
2021/03/15 04:54:54;;;;;;;;;;;;;;;10.19;45.14;99688.75;4829968;29;20003;-77
2021/03/15 04:57:31;;;;;;;;;;;;;;;10.16;45.18;99687.09;4823784;29;19932;-76
2021/03/15 05:00:06;;;;;;;;;;;;;;;10.13;45.06;99688.06;4842918;29;19956;-77
2021/03/15 05:02:44;;;;;;;;;;;;;;;10.11;45.88;99689.06;4817828;29;19956;-77
2021/03/15 05:05:15;;;;;;;;;;;;;;;10.11;46.11;99679.38;4819321;29;19928;-78
2021/03/15 05:07:55;;;;;;;;;;;;;;;10.08;46.07;99686.56;4831074;29;19940;-79
2021/03/15 05:10:22;;;;;;;;;;;;;;;10.07;46.40;99690.13;4819321;29;19937;-76
2021/03/15 05:12:54;;;;;;;;;;;;;;;10.03;46.86;99694.66;4820116;29;19933;-78
2021/03/15 05:18:31;;;;;;;;;;;;;;;10.02;46.81;99692.97;4816252;29;19936;-76
2021/03/15 05:21:24;;;;;;;;;;;;;;;10.01;47.06;99695.66;4841228;29;19947;-75
2021/03/15 05:23:55;;;;;;;;;;;;;;;9.96;47.48;99688.78;4835443;29;19939;-76
2021/03/15 05:26:22;;;;;;;;;;;;;;;9.97;47.46;99687.88;4838974;29;19990;-75
2021/03/15 05:28:50;;;;;;;;;;;;;;;9.96;47.30;99682.66;4820619;29;19936;-75
2021/03/15 05:31:19;;;;;;;;;;;;;;;9.94;47.36;99685.38;4819924;29;19939;-75
2021/03/15 05:33:46;;;;;;;;;;;;;;;9.93;47.92;99691.56;4850101;29;20534;-75
2021/03/15 05:36:14;;;;;;;;;;;;;;;9.92;47.95;99687.19;4844335;29;20378;-75
2021/03/15 05:38:43;;;;;;;;;;;;;;;9.89;47.72;99687.34;4842187;29;19932;-76
2021/03/15 05:41:13;;;;;;;;;;;;;;;9.90;48.29;99681.13;4838516;29;19933;-75
2021/03/15 05:43:49;;;;;;;;;;;;;;;9.88;48.54;99688.25;4837002;29;19932;-75
2021/03/15 05:46:31;;;;;;;;;;;;;;;9.88;47.78;99685.59;4830910;29;19936;-75
2021/03/15 05:49:16;;;;;;;;;;;;;;;9.86;48.18;99689.25;4832879;29;19941;-75
2021/03/15 05:51:52;;;;;;;;;;;;;;;9.85;48.33;99682.22;4832036;29;19984;-75
2021/03/15 05:54:25;;;;;;;;;;;;;;;9.78;48.91;99681.63;4838053;29;19928;-76
2021/03/15 05:57:13;;;;;;;;;;;;;;;9.81;48.18;99684.16;4829794;29;19932;-76
2021/03/15 06:00:00;;;;;;;;;;;;;;;9.77;48.62;99679.91;4834685;29;19936;-75
2021/03/15 06:02:36;;;;;;;;;;;;;;;9.76;48.42;99684.34;4835300;29;19948;-76
2021/03/15 06:05:28;;;;;;;;;;;;;;;9.76;48.89;99683.50;4838622;29;19962;-77
2021/03/15 06:08:03;;;;;;;;;;;;;;;9.75;48.79;99681.75;4805381;29;20620;-74
2021/03/15 06:10:41;;;;;;;;;;;;;;;9.74;49.15;99688.81;4838340;29;19936;-76
2021/03/15 06:13:12;;;;;;;;;;;;;;;9.75;49.10;99672.03;4836476;29;20394;-76
2021/03/15 06:16:18;;;;;;;;;;;;;;;9.74;49.47;99680.88;4820215;29;20019;-76
2021/03/15 06:18:53;;;;;;;;;;;;;;;9.76;48.85;99680.84;4775733;29;19959;-75
2021/03/15 06:21:29;;;;;;;;;;;;;;;9.74;48.68;99680.88;4763428;29;20382;-75
2021/03/15 06:24:04;;;;;;;;;;;;;;;9.76;49.19;99683.50;4770495;29;19933;-75
2021/03/15 06:30:28;;;;;;;;;;;;;;;9.75;49.25;99681.75;4832302;29;19932;-77
2021/03/15 06:41:22;;;;;;;;;;;;;;;9.71;49.38;99690.75;4744855;29;19945;-71
2021/03/15 06:43:58;;;;;;;;;;;;;;;9.74;49.34;99693.25;4784870;29;19972;-77
2021/03/15 06:46:45;;;;;;;;;;;;;;;10.01;47.67;99693.00;4750911;30;20065;-76
2021/03/15 06:49:31;;;;;;;;;;;;;;;10.13;46.19;99692.50;4800593;29;19975;-74
2021/03/15 06:52:32;;;;;;;;;;;;;;;;;;;;;
2021/03/15 06:55:10;;;;;;;;;;;;;;;10.38;43.87;99695.00;4795089;29;19930;-74
2021/03/15 06:58:34;;;;;;;;;;;;;;;10.53;42.92;99692.59;4806032;29;19943;-75
2021/03/15 07:01:15;;;;;;;;;;;;;;;10.60;42.38;99689.63;4801237;29;19929;-77
2021/03/15 07:04:34;;;;;;;;;;;;;;;10.65;41.45;99683.28;4799291;29;19961;-77
2021/03/15 07:07:31;;;;;;;;;;;;;;;10.68;40.64;99681.34;4782388;29;19933;-75
2021/03/15 07:10:26;;;;;;;;;;;;;;;10.76;40.42;99684.50;4809387;29;20046;-74
2021/03/15 07:13:08;;;;;;;;;;;;;;;10.75;40.17;99684.56;4841082;29;19943;-76
2021/03/15 07:15:35;;;;;;;;;;;;;;;10.59;41.51;99689.69;4823650;29;19961;-76
2021/03/15 07:18:15;;;;;;;;;;;;;;;10.50;41.88;99687.47;4846623;29;20064;-77
2021/03/15 07:20:44;;;;;;;;;;;;;;;10.48;42.37;99690.19;4843147;29;19999;-77
2021/03/15 07:23:14;;;;;;;;;;;;;;;10.52;42.47;99706.75;4843531;29;19944;-77
2021/03/15 07:25:41;;;;;;;;;;;;;;;10.51;43.14;99711.19;4840078;29;19935;-73
2021/03/15 07:28:09;;;;;;;;;;;;;;;10.49;43.22;99694.50;4844155;29;19936;-77
2021/03/15 07:30:38;;;;;;;;;;;;;;;10.56;43.68;99705.72;4843576;29;20011;-76
2021/03/15 07:33:05;;;;;;;;;;;;;;;10.54;43.93;99699.63;4844906;29;20452;-77
2021/03/15 07:35:34;;;;;;;;;;;;;;;10.57;44.31;99702.13;4837674;29;20005;-77
2021/03/15 07:38:03;;;;;;;;;;;;;;;10.67;43.94;99694.66;4839952;29;19932;-77
2021/03/15 07:40:32;;;;;;;;;;;;;;;10.71;44.02;99704.16;4837924;29;19943;-74
2021/03/15 07:42:59;;;;;;;;;;;;;;;10.74;43.96;99704.91;4847225;29;19929;-77
2021/03/15 07:45:30;;;;;;;;;;;;;;;10.85;43.91;99703.53;4834223;29;20365;-77
2021/03/15 07:48:06;;;;;;;;;;;;;;;10.86;44.32;99706.13;4845180;29;19953;-77
2021/03/15 07:50:34;;;;;;;;;;;;;;;10.85;44.36;99706.16;4835399;29;20406;-74
2021/03/15 07:53:02;;;;;;;;;;;;;;;10.89;44.87;99713.91;4827058;29;19944;-74
2021/03/15 07:55:33;;;;;;;;;;;;;;;10.94;44.89;99713.72;4845039;29;19944;-77
2021/03/15 07:58:00;;;;;;;;;;;;;;;10.93;45.04;99717.28;4845137;29;19940;-77
2021/03/15 08:00:29;;;;;;;;;;;;;;;10.86;45.20;99718.47;4842463;29;19933;-76
2021/03/15 08:02:57;;;;;;;;;;;;;;;10.78;44.98;99716.16;4828694;29;21017;-77
2021/03/15 08:05:41;;;;;;;;;;;;;;;10.85;45.67;99722.03;4840961;29;19993;-74
2021/03/15 08:08:08;;;;;;;;;;;;;;;10.93;45.36;99723.44;4844029;29;19933;-77
2021/03/15 08:10:35;;;;;;;;;;;;;;;10.90;45.59;99722.69;4827831;29;19929;-77
2021/03/15 08:13:03;;;;;;;;;;;;;;;10.86;45.61;99724.66;4844397;29;19933;-76
2021/03/15 08:15:33;;;;;;;;;;;;;;;10.82;45.96;99731.00;4847493;29;20300;-76
2021/03/15 08:18:00;;;;;;;;;;;;;;;10.84;46.05;99726.50;4828567;29;19933;-77
2021/03/15 08:20:28;;;;;;;;;;;;;;;10.85;46.35;99730.84;4838695;29;20047;-77
2021/03/15 08:22:58;;;;;;;;;;;;;;;10.80;46.22;99725.75;4840471;29;20432;-77
2021/03/15 08:25:27;;;;;;;;;;;;;;;10.78;46.19;99729.41;4841838;29;19955;-74
2021/03/15 08:27:57;;;;;;;;;;;;;;;10.72;46.92;99729.69;4844412;29;19935;-77
2021/03/15 08:30:26;;;;;;;;;;;;;;;10.71;46.81;99735.91;4843812;29;19936;-77
2021/03/15 08:32:54;;;;;;;;;;;;;;;10.62;47.10;99726.56;4839173;29;19996;-75
2021/03/15 08:35:21;;;;;;;;;;;;;;;10.61;47.43;99733.66;4841696;29;20004;-77
2021/03/15 08:37:49;;;;;;;;;;;;;;;10.60;47.16;99741.66;4846125;29;19929;-77
2021/03/15 08:40:32;;;;;;;;;;;;;;;10.62;47.14;99738.03;4829402;29;19940;-76
2021/03/15 08:43:14;;;;;;;;;;;;;;;10.71;47.36;99749.97;4848025;29;19993;-76
2021/03/15 08:45:46;;;;;;;;;;;;;;;10.87;46.65;99747.50;4844654;29;19936;-76
2021/03/15 08:48:13;;;;;;;;;;;;;;;11.09;46.52;99747.41;4842120;29;19936;-77
2021/03/15 08:50:46;;;;;;;;;;;;;;;11.24;45.74;99744.97;4840820;29;19934;-76
2021/03/15 08:53:33;;;;;;;;;;;;;;;11.33;45.75;99749.00;4842323;29;19955;-77
2021/03/15 08:56:00;;;;;;;;;;;;;;;11.52;44.98;99722.53;4842640;29;19974;-76
2021/03/15 08:58:38;;;;;;;;;;;;;;;11.79;44.89;99731.78;4844425;29;19932;-76
2021/03/15 09:01:07;;;;;;;;;;;;;;;11.89;44.67;99734.84;4825986;29;19932;-76
2021/03/15 09:03:47;;;;;;;;;;;;;;;11.91;44.69;99734.75;4840426;29;19997;-76
2021/03/15 09:06:15;;;;;;;;;;;;;;;11.77;45.16;99736.28;4845021;29;19929;-76
2021/03/15 09:08:58;;;;;;;;;;;;;;;11.76;45.08;99734.56;4843206;29;19932;-76
2021/03/15 09:11:49;;;;;;;;;;;;;;;11.81;45.13;99736.16;4835845;29;20005;-76
2021/03/15 09:14:34;;;;;;;;;;;;;;;11.86;45.17;99744.72;4809366;29;20468;-76
2021/03/15 09:17:23;;;;;;;;;;;;;;;11.89;45.44;99742.78;4840630;29;20235;-76
2021/03/15 09:19:50;;;;;;;;;;;;;;;11.90;45.50;99744.50;4830429;29;19932;-77
2021/03/15 09:22:21;;;;;;;;;;;;;;;11.95;44.92;99742.53;4840094;29;19936;-76
2021/03/15 09:24:51;;;;;;;;;;;;;;;12.15;43.61;99740.69;4850992;29;19954;-77
2021/03/15 09:27:23;;;;;;;;;;;;;;;12.17;42.68;99748.56;4841228;29;19936;-76
2021/03/15 09:29:53;;;;;;;;;;;;;;;12.17;41.85;99744.09;4836887;29;19935;-77
2021/03/15 09:32:27;;;;;;;;;;;;;;;12.18;41.40;99742.31;4843759;29;20002;-76
2021/03/15 09:34:54;;;;;;;;;;;;;;;12.16;40.89;99747.72;4842368;29;19933;-76
2021/03/15 09:37:21;;;;;;;;;;;;;;;12.12;40.33;99741.69;4844256;29;19940;-76
2021/03/15 09:39:48;;;;;;;;;;;;;;;12.15;40.08;99746.00;4843451;29;19973;-76
2021/03/15 09:42:17;;;;;;;;;;;;;;;12.23;39.49;99748.25;4828807;29;20038;-76
2021/03/15 09:44:44;;;;;;;;;;;;;;;12.24;38.96;99748.19;4827394;29;19953;-77
2021/03/15 09:47:22;;;;;;;;;;;;;;;12.27;38.79;99750.66;4829363;29;19961;-77
2021/03/15 09:49:51;;;;;;;;;;;;;;;12.29;38.47;99747.94;4835858;29;20469;-77
2021/03/15 09:52:27;;;;;;;;;;;;;;;12.30;39.01;99747.00;4844636;29;19929;-77
2021/03/15 09:55:05;;;;;;;;;;;;;;;12.30;39.31;99744.34;4830126;29;19940;-77
2021/03/15 09:57:35;;;;;;;;;;;;;;;12.35;39.66;99752.09;4829375;29;20502;-76
2021/03/15 10:00:28;;;;;;;;;;;;;;;12.35;39.97;99752.94;4842481;29;19929;-76
2021/03/15 10:03:19;;;;;;;;;;;;;;;12.50;40.19;99748.66;4829876;29;19929;-77
2021/03/15 10:06:09;;;;;;;;;;;;;;;12.78;39.84;99749.88;4843153;29;19940;-77
2021/03/15 10:09:04;;;;;;;;;;;;;;;12.87;40.05;99760.00;4837042;29;19928;-77
2021/03/15 10:12:01;;;;;;;;;;;;;;;13.09;39.92;99761.50;4834768;29;19952;-76
2021/03/15 10:14:47;;;;;;;;;;;;;;;13.57;38.99;99757.16;4843712;29;19935;-76
2021/03/15 10:17:33;;;;;;;;;;;;;;;13.66;39.17;99761.09;4831934;29;20237;-76
2021/03/15 10:20:21;;;;;;;;;;;;;;;13.75;39.31;99765.06;4847686;29;19943;-77
2021/03/15 10:22:50;;;;;;;;;;;;;;;13.83;39.06;99760.16;4840778;29;20000;-77
2021/03/15 10:25:17;;;;;;;;;;;;;;;13.98;38.75;99758.41;4847298;29;19999;-77
2021/03/15 10:27:52;;;;;;;;;;;;;;;14.02;38.80;99759.94;4831628;29;20301;-77
2021/03/15 10:30:19;;;;;;;;;;;;;;;14.15;38.82;99760.09;4830335;29;19943;-77
2021/03/15 10:32:48;;;;;;;;;;;;;;;14.25;38.69;99763.94;4835233;29;19967;-77
2021/03/15 10:35:19;;;;;;;;;;;;;;;14.46;38.88;99763.63;4830285;29;20000;-76
2021/03/15 10:38:00;;;;;;;;;;;;;;;14.89;38.10;99773.53;4827217;29;19933;-76
2021/03/15 10:40:36;;;;;;;;;;;;;;;14.77;38.32;99772.47;4826444;29;19942;-77
2021/03/15 10:43:13;;;;;;;;;;;;;;;15.06;37.95;99775.16;4830212;29;19933;-77
2021/03/15 10:45:40;;;;;;;;;;;;;;;15.00;38.16;99781.72;4847368;29;19928;-77
2021/03/15 10:48:10;;;;;;;;;;;;;;;15.06;38.04;99776.03;4844488;29;19961;-77
2021/03/15 10:50:58;;;;;;;;;;;;;;;14.88;38.47;99777.13;4847214;29;19932;-76
2021/03/15 10:53:57;;;;;;;;;;;;;;;14.50;39.68;99772.28;4836362;29;19982;-76
2021/03/15 10:56:44;;;;;;;;;;;;;;;14.47;40.01;99778.63;4847234;29;19995;-76
2021/03/15 10:59:28;;;;;;;;;;;;;;;14.33;40.43;99783.91;4845572;29;19933;-77
2021/03/15 11:01:56;;;;;;;;;;;;;;;14.36;40.26;99783.75;4841705;29;20600;-76
2021/03/15 11:04:33;;;;;;;;;;;;;;;14.36;40.30;99792.56;4842402;29;19992;-77
2021/03/15 11:07:19;;;;;;;;;;;;;;;14.40;40.23;99788.78;4826386;29;19964;-77
2021/03/15 11:09:55;;;;;;;;;;;;;;;14.41;40.56;99782.50;4827131;29;20176;-77
2021/03/15 11:12:36;;;;;;;;;;;;;;;14.40;40.65;99785.28;4843243;29;19937;-77
2021/03/15 11:15:13;;;;;;;;;;;;;;;14.50;40.50;99791.78;4832474;29;19932;-77
2021/03/15 11:17:43;;;;;;;;;;;;;;;14.65;40.23;99798.00;4840846;29;20004;-77
2021/03/15 11:20:11;;;;;;;;;;;;;;;14.83;39.79;99798.72;4827776;29;19929;-78
2021/03/15 11:22:49;;;;;;;;;;;;;;;14.85;39.72;99802.16;4838669;29;19936;-77
2021/03/15 11:25:18;;;;;;;;;;;;;;;15.00;39.54;99796.88;4844675;29;19929;-77
2021/03/15 11:27:55;;;;;;;;;;;;;;;14.86;39.96;99801.19;4832455;29;19932;-78
2021/03/15 11:30:24;;;;;;;;;;;;;;;14.81;40.14;99799.75;4827172;29;19996;-77
2021/03/15 11:33:23;;;;;;;;;;;;;;;14.63;41.05;99801.69;4835764;29;19936;-78
2021/03/15 11:36:15;;;;;;;;;;;;;;;14.42;41.46;99802.88;4837435;29;19936;-77
2021/03/15 11:38:53;;;;;;;;;;;;;;;14.38;41.57;99801.34;4843260;29;19963;-77
2021/03/15 11:41:27;;;;;;;;;;;;;;;14.24;42.44;99798.63;4828233;29;19951;-77
2021/03/15 11:43:54;;;;;;;;;;;;;;;14.14;42.35;99802.75;4846230;29;20018;-77
2021/03/15 11:46:23;;;;;;;;;;;;;;;14.04;42.38;99805.94;4826513;29;19993;-77
2021/03/15 11:48:51;;;;;;;;;;;;;;;13.88;43.30;99808.59;4840266;29;19985;-77
2021/03/15 11:51:39;;;;;;;;;;;;;;;13.85;43.09;99815.88;4827355;29;20027;-77
2021/03/15 11:54:29;;;;;;;;;;;;;;;13.87;43.26;99814.84;4837688;29;19932;-77
2021/03/15 11:56:57;;;;;;;;;;;;;;;13.97;43.02;99814.34;4829197;29;19943;-77
2021/03/15 11:59:28;;;;;;;;;;;;;;;13.88;43.24;99813.03;4834106;29;19932;-77
2021/03/15 12:02:05;;;;;;;;;;;;;;;13.74;43.66;99821.81;4821598;29;20783;-77
2021/03/15 12:04:33;;;;;;;;;;;;;;;13.68;43.77;99822.97;4823177;29;20171;-77
2021/03/15 12:07:03;;;;;;;;;;;;;;;13.59;44.01;99820.84;4826013;29;19928;-77
2021/03/15 12:09:36;;;;;;;;;;;;;;;13.45;44.44;99822.44;4828383;29;19932;-77
2021/03/15 12:12:07;;;;;;;;;;;;;;;13.41;44.62;99825.38;4837467;29;19984;-77
2021/03/15 12:14:47;;;;;;;;;;;;;;;13.25;44.99;99827.94;4826781;29;19932;-78
2021/03/15 12:17:14;;;;;;;;;;;;;;;13.18;45.35;99840.69;4827420;29;19929;-77
2021/03/15 12:19:43;;;;;;;;;;;;;;;13.01;45.77;99836.25;4825619;29;19935;-76
2021/03/15 12:22:26;;;;;;;;;;;;;;;13.03;44.44;99833.53;4825433;29;20382;-77
2021/03/15 12:25:00;;;;;;;;;;;;;;;13.08;43.55;99828.81;4842487;29;19943;-77
2021/03/15 12:27:34;;;;;;;;;;;;;;;13.11;42.35;99834.84;4841330;29;20009;-77
2021/03/15 12:30:02;;;;;;;;;;;;;;;13.16;41.23;99836.38;4841444;29;20026;-77
2021/03/15 12:32:29;;;;;;;;;;;;;;;13.18;40.76;99831.88;4823113;29;19932;-77
2021/03/15 12:34:57;;;;;;;;;;;;;;;13.21;40.17;99837.00;4827643;29;20029;-77
2021/03/15 12:37:24;;;;;;;;;;;;;;;13.26;39.40;99843.81;4839982;29;19933;-76
2021/03/15 12:39:53;;;;;;;;;;;;;;;13.32;39.05;99841.78;4828350;29;19963;-77
2021/03/15 12:42:24;;;;;;;;;;;;;;;13.40;38.94;99851.06;4829822;29;19965;-77
2021/03/15 12:44:59;;;;;;;;;;;;;;;13.41;38.85;99849.28;4834444;29;19932;-77
2021/03/15 12:47:32;;;;;;;;;;;;;;;13.36;39.49;99856.59;4829551;29;19959;-77
2021/03/15 12:49:59;;;;;;;;;;;;;;;13.29;39.82;99856.06;4845736;29;19965;-77
2021/03/15 12:52:29;;;;;;;;;;;;;;;13.20;40.45;99860.06;4829206;29;20516;-77
2021/03/15 12:55:10;;;;;;;;;;;;;;;13.16;40.50;99862.94;4829959;29;19933;-77
2021/03/15 12:57:39;;;;;;;;;;;;;;;13.14;40.91;99862.19;4839994;29;19971;-76
2021/03/15 13:00:12;;;;;;;;;;;;;;;13.17;41.17;99862.00;4820848;29;20031;-77
2021/03/15 13:03:00;;;;;;;;;;;;;;;13.17;41.39;99868.19;4839551;29;19937;-76
2021/03/15 13:05:27;;;;;;;;;;;;;;;13.25;41.26;99878.38;4842090;29;20465;-76
2021/03/15 13:08:13;;;;;;;;;;;;;;;13.22;41.70;99874.09;4840658;29;19943;-77
2021/03/15 13:11:12;;;;;;;;;;;;;;;13.31;41.77;99882.53;4828529;29;19928;-77
2021/03/15 13:13:48;;;;;;;;;;;;;;;13.40;41.79;99885.59;4836701;29;19963;-77
2021/03/15 13:16:28;;;;;;;;;;;;;;;13.44;41.86;99887.13;4826636;29;19959;-78
2021/03/15 13:18:56;;;;;;;;;;;;;;;13.55;41.86;99891.91;4827450;29;19954;-77
2021/03/15 13:21:23;;;;;;;;;;;;;;;13.62;41.82;99889.78;4844294;29;19940;-77
2021/03/15 13:23:50;;;;;;;;;;;;;;;13.65;41.90;99889.59;4836721;29;19928;-77
2021/03/15 13:26:17;;;;;;;;;;;;;;;13.70;41.93;99889.38;4843353;29;20465;-77
2021/03/15 13:28:51;;;;;;;;;;;;;;;13.80;41.86;99900.34;4828114;29;20308;-78
2021/03/15 13:31:19;;;;;;;;;;;;;;;13.75;41.93;99903.28;4832330;29;19932;-77
2021/03/15 13:33:51;;;;;;;;;;;;;;;13.80;42.00;99901.19;4831767;29;19952;-77